Susquehanna — WDD9976 — position and weather

sailwx.info

Track history (hours):
 
Tides and Currents Weather Stations Pressure Air Temp Water Temp Dewpoint Dewpoint Depression Visibility Wind Speed Wind Dir Waves Ship Positions

Susquehanna

Owner: Vane Line Bunkering, Inc., Baltimore, MD. More information available from US FCC via Universal Licensing System and Coast Guard Vessel Documentation Center.

Last reported at 2017-Mar-23 12:32 UTC. Time now 2017-Mar-23 12:34 UTC.
Position N 39°54' W 075°12'.

; draft 4.2 m.

Type: Tug. MMSI: 367318750.

Date/timePositionNaut miles runAvg speedWind from/ knotsBaromVisibWave heightAir tempDewpointWater temp
2017-Mar-23 12:32N 39°54' W 075°12'0 0.1
2017-Mar-23 11:31N 39°54' W 075°12'0 0.0
2017-Mar-23 10:31N 39°54' W 075°12'0 0.0
2017-Mar-23 09:32N 39°54' W 075°12'0 0.0
2017-Mar-23 08:33N 39°54' W 075°12'0 0.0
2017-Mar-23 07:33N 39°54' W 075°12'0 0.0
2017-Mar-23 06:31N 39°54' W 075°12'0 0.0
2017-Mar-23 05:32N 39°54' W 075°12'0 0.0
2017-Mar-23 04:32N 39°54' W 075°12'0 0.0
2017-Mar-23 03:33N 39°54' W 075°12'0 0.0
2017-Mar-23 02:31N 39°54' W 075°12'0 0.0
2017-Mar-23 01:31N 39°54' W 075°12'2 2.5
2017-Mar-23 00:34N 39°52' W 075°14'1111.3
2017-Mar-22 23:34N 39°47' W 075°27'5 4.5
2017-Mar-22 22:31N 39°43' W 075°31'0 0.0
2017-Mar-22 21:31N 39°43' W 075°31'7 6.6
2017-Mar-22 20:27N 39°48' W 075°25'1 0.8
2017-Mar-22 19:32N 39°49' W 075°24'4 4.2
2017-Mar-22 18:33N 39°51' W 075°20'6 6.2
2017-Mar-22 17:33N 39°54' W 075°12'0 0.0
2017-Mar-22 16:31N 39°54' W 075°12'0 0.0
2017-Mar-22 15:31N 39°54' W 075°12'0 0.0
2017-Mar-22 14:29N 39°54' W 075°12'0 0.0
2017-Mar-22 13:33N 39°54' W 075°12'0 0.0
2017-Mar-22 12:33N 39°54' W 075°12'0 0.1
2017-Mar-22 11:31N 39°54' W 075°12'0 0.0
2017-Mar-22 10:32N 39°54' W 075°12'0 0.1
2017-Mar-22 09:33N 39°54' W 075°12'0 0.0
2017-Mar-22 08:33N 39°54' W 075°12'0 0.1
2017-Mar-22 07:32N 39°54' W 075°12'2 2.0
2017-Mar-22 06:33N 39°53' W 075°10'8 8.3
2017-Mar-22 05:33N 39°51' W 075°20'3 3.4
2017-Mar-22 04:33N 39°49' W 075°24'6 5.5
2017-Mar-22 03:33N 39°51' W 075°17'5 4.8
2017-Mar-22 02:34N 39°54' W 075°12'0 0.0
2017-Mar-22 01:31N 39°54' W 075°12'0 0.0
2017-Mar-22 00:32N 39°54' W 075°12'0 0.0
2017-Mar-21 23:32N 39°54' W 075°12'0 0.0
2017-Mar-21 22:33N 39°54' W 075°12'0 0.0
2017-Mar-21 21:31N 39°54' W 075°12'0 0.0
2017-Mar-21 20:31N 39°54' W 075°12'0 0.0
2017-Mar-21 19:32N 39°54' W 075°12'10 0.3
2017-Mar-20 13:27N 39°49' W 075°24'1 1.2
2017-Mar-20 12:33N 39°49' W 075°23'2 0.0
2017-Mar-18 16:25N 39°48' W 075°25'  
Track history (hours):
 
Tides and Currents Weather Stations Pressure Air Temp Water Temp Dewpoint Dewpoint Depression Visibility Wind Speed Wind Dir Waves Ship Positions

Susquehanna

Owner: Vane Line Bunkering, Inc., Baltimore, MD. More information available from US FCC via Universal Licensing System and Coast Guard Vessel Documentation Center.

Last reported at 2017-Mar-23 12:32 UTC. Time now 2017-Mar-23 12:34 UTC.
Position N 39°54' W 075°12'.

; draft 4.2 m.

Type: Tug. MMSI: 367318750.

Date/timePositionNaut miles runAvg speedWind from/ knotsBaromVisibWave heightAir tempDewpointWater temp
2017-Mar-23 12:32N 39°54' W 075°12'0 0.1
2017-Mar-23 11:31N 39°54' W 075°12'0 0.0
2017-Mar-23 10:31N 39°54' W 075°12'0 0.0
2017-Mar-23 09:32N 39°54' W 075°12'0 0.0
2017-Mar-23 08:33N 39°54' W 075°12'0 0.0
2017-Mar-23 07:33N 39°54' W 075°12'0 0.0
2017-Mar-23 06:31N 39°54' W 075°12'0 0.0
2017-Mar-23 05:32N 39°54' W 075°12'0 0.0
2017-Mar-23 04:32N 39°54' W 075°12'0 0.0
2017-Mar-23 03:33N 39°54' W 075°12'0 0.0
2017-Mar-23 02:31N 39°54' W 075°12'0 0.0
2017-Mar-23 01:31N 39°54' W 075°12'2 2.5
2017-Mar-23 00:34N 39°52' W 075°14'1111.3
2017-Mar-22 23:34N 39°47' W 075°27'5 4.5
2017-Mar-22 22:31N 39°43' W 075°31'0 0.0
2017-Mar-22 21:31N 39°43' W 075°31'7 6.6
2017-Mar-22 20:27N 39°48' W 075°25'1 0.8
2017-Mar-22 19:32N 39°49' W 075°24'4 4.2
2017-Mar-22 18:33N 39°51' W 075°20'6 6.2
2017-Mar-22 17:33N 39°54' W 075°12'0 0.0
2017-Mar-22 16:31N 39°54' W 075°12'0 0.0
2017-Mar-22 15:31N 39°54' W 075°12'0 0.0
2017-Mar-22 14:29N 39°54' W 075°12'0 0.0
2017-Mar-22 13:33N 39°54' W 075°12'0 0.0
2017-Mar-22 12:33N 39°54' W 075°12'0 0.1
2017-Mar-22 11:31N 39°54' W 075°12'0 0.0
2017-Mar-22 10:32N 39°54' W 075°12'0 0.1
2017-Mar-22 09:33N 39°54' W 075°12'0 0.0
2017-Mar-22 08:33N 39°54' W 075°12'0 0.1
2017-Mar-22 07:32N 39°54' W 075°12'2 2.0
2017-Mar-22 06:33N 39°53' W 075°10'8 8.3
2017-Mar-22 05:33N 39°51' W 075°20'3 3.4
2017-Mar-22 04:33N 39°49' W 075°24'6 5.5
2017-Mar-22 03:33N 39°51' W 075°17'5 4.8
2017-Mar-22 02:34N 39°54' W 075°12'0 0.0
2017-Mar-22 01:31N 39°54' W 075°12'0 0.0
2017-Mar-22 00:32N 39°54' W 075°12'0 0.0
2017-Mar-21 23:32N 39°54' W 075°12'0 0.0
2017-Mar-21 22:33N 39°54' W 075°12'0 0.0
2017-Mar-21 21:31N 39°54' W 075°12'0 0.0
2017-Mar-21 20:31N 39°54' W 075°12'0 0.0
2017-Mar-21 19:32N 39°54' W 075°12'10 0.3
2017-Mar-20 13:27N 39°49' W 075°24'1 1.2
2017-Mar-20 12:33N 39°49' W 075°23'2 0.0
2017-Mar-18 16:25N 39°48' W 075°25'  

Dump ship's entire track history